Fontana, California
Current Conditions -  °F | °C
As of 6:53 PM on Thursday 18 Dec 2014 (Local Time) from KONT Reporting Station
Scattered Clouds Scattered Clouds  
Wind Chill: 55°   Ceiling: Unl
Heat Index: 55°   Visibility: 10mi
Dew Point: 45°   Wind: 3mph
Humidity: 69%   Direction: 270°W
Pressure: 30.19"   Gusts: NA
Location:  34.1°N, 117.43°W
Report Text: KONT 190253Z 27003KT 10SM FEW060 FEW080 SCT230 13/07 A3019 RMK AO2 SLP222 T01280072 52016
Loading
Personal Weather Stations






























Interactive Weather Map New forecast layout! Learn more

10-Day Weather Forecast

Advertisements
Track Severe Weather on mobile